Asiatic Wave — 9V8790 — position and weather

sailwx.info

Track history (hours):
 
Tides and Currents Weather Stations Pressure Air Temp Water Temp Dewpoint Dewpoint Depression Visibility Wind Speed Wind Dir Waves Ship Positions

Asiatic Wave

Last reported at 2014-Sep-23 19:04 UTC. Time now 2014-Oct-01 04:13 UTC.
Position N 01°16' E 104°11'.

Length 150 m; draft 7.4 m.

Type: Ship (hazmat cat A). MMSI: 564211000.

Date/timePositionNaut miles runAvg speedWind from/ knotsBaromVisibWave heightAir tempDewpointWater temp
2014-Sep-23 19:04N 01°16' E 104°11'815.1
2014-Sep-23 18:33N 01°15' E 104°03'1414.5
2014-Sep-23 17:34N 01°10' E 103°49'1312.6
2014-Sep-23 16:34N 01°03' E 103°39'1414.0
2014-Sep-23 15:32N 01°10' E 103°26'  
2014-Sep-17 19:33N 01°13' E 103°30'1414.1
2014-Sep-17 18:33N 01°08' E 103°44'1312.6
2014-Sep-17 17:33N 01°14' E 103°55'1211.7
2014-Sep-17 16:33N 01°16' E 104°07'  
Track history (hours):
 
Tides and Currents Weather Stations Pressure Air Temp Water Temp Dewpoint Dewpoint Depression Visibility Wind Speed Wind Dir Waves Ship Positions

Asiatic Wave

Last reported at 2014-Sep-23 19:04 UTC. Time now 2014-Oct-01 04:13 UTC.
Position N 01°16' E 104°11'.

Length 150 m; draft 7.4 m.

Type: Ship (hazmat cat A). MMSI: 564211000.

Date/timePositionNaut miles runAvg speedWind from/ knotsBaromVisibWave heightAir tempDewpointWater temp
2014-Sep-23 19:04N 01°16' E 104°11'815.1
2014-Sep-23 18:33N 01°15' E 104°03'1414.5
2014-Sep-23 17:34N 01°10' E 103°49'1312.6
2014-Sep-23 16:34N 01°03' E 103°39'1414.0
2014-Sep-23 15:32N 01°10' E 103°26'  
2014-Sep-17 19:33N 01°13' E 103°30'1414.1
2014-Sep-17 18:33N 01°08' E 103°44'1312.6
2014-Sep-17 17:33N 01°14' E 103°55'1211.7
2014-Sep-17 16:33N 01°16' E 104°07'  

Dump ship's entire track history